sensor_id;sensor_type;location;lat;lon;timestamp;temperature;humidity
13322;DHT22;6730;46.248;6.930;2023-03-23T00:01:01;13.60;94.40
13322;DHT22;6730;46.248;6.930;2023-03-23T00:03:27;13.70;94.40
13322;DHT22;6730;46.248;6.930;2023-03-23T00:05:55;13.40;94.60
13322;DHT22;6730;46.248;6.930;2023-03-23T00:08:25;12.80;95.60
13322;DHT22;6730;46.248;6.930;2023-03-23T00:10:52;12.50;95.90
13322;DHT22;6730;46.248;6.930;2023-03-23T00:13:23;12.70;96.00
13322;DHT22;6730;46.248;6.930;2023-03-23T00:15:49;12.70;95.80
13322;DHT22;6730;46.248;6.930;2023-03-23T00:18:20;13.00;95.80
13322;DHT22;6730;46.248;6.930;2023-03-23T00:20:56;13.30;95.40
13322;DHT22;6730;46.248;6.930;2023-03-23T00:23:24;13.60;95.10
13322;DHT22;6730;46.248;6.930;2023-03-23T00:25:56;13.00;95.20
13322;DHT22;6730;46.248;6.930;2023-03-23T00:28:23;12.80;95.80
13322;DHT22;6730;46.248;6.930;2023-03-23T00:31:03;13.10;95.90
13322;DHT22;6730;46.248;6.930;2023-03-23T00:33:34;13.30;95.60
13322;DHT22;6730;46.248;6.930;2023-03-23T00:36:04;13.50;95.80
13322;DHT22;6730;46.248;6.930;2023-03-23T00:38:30;13.20;95.00
13322;DHT22;6730;46.248;6.930;2023-03-23T00:40:56;12.60;95.50
13322;DHT22;6730;46.248;6.930;2023-03-23T00:43:24;12.60;96.10
13322;DHT22;6730;46.248;6.930;2023-03-23T00:45:55;12.90;96.10
13322;DHT22;6730;46.248;6.930;2023-03-23T00:48:22;13.30;95.80
13322;DHT22;6730;46.248;6.930;2023-03-23T00:50:49;13.50;95.50
13322;DHT22;6730;46.248;6.930;2023-03-23T00:53:15;13.60;95.40
13322;DHT22;6730;46.248;6.930;2023-03-23T00:55:42;13.70;95.40
13322;DHT22;6730;46.248;6.930;2023-03-23T00:58:09;13.70;94.80
13322;DHT22;6730;46.248;6.930;2023-03-23T01:00:35;13.70;95.30
13322;DHT22;6730;46.248;6.930;2023-03-23T01:03:01;13.90;95.10
13322;DHT22;6730;46.248;6.930;2023-03-23T01:05:27;13.90;94.90
13322;DHT22;6730;46.248;6.930;2023-03-23T01:07:58;13.60;95.30
13322;DHT22;6730;46.248;6.930;2023-03-23T01:10:23;13.60;95.10
13322;DHT22;6730;46.248;6.930;2023-03-23T01:12:50;13.80;95.00
13322;DHT22;6730;46.248;6.930;2023-03-23T01:15:17;13.70;95.20
13322;DHT22;6730;46.248;6.930;2023-03-23T01:17:44;13.80;95.30
13322;DHT22;6730;46.248;6.930;2023-03-23T01:20:11;13.80;95.10
13322;DHT22;6730;46.248;6.930;2023-03-23T01:22:39;13.50;95.40
13322;DHT22;6730;46.248;6.930;2023-03-23T01:25:06;13.40;95.40
13322;DHT22;6730;46.248;6.930;2023-03-23T01:27:32;13.60;95.70
13322;DHT22;6730;46.248;6.930;2023-03-23T01:29:58;13.70;95.40
13322;DHT22;6730;46.248;6.930;2023-03-23T01:32:23;13.80;95.10
13322;DHT22;6730;46.248;6.930;2023-03-23T01:34:49;13.60;95.00
13322;DHT22;6730;46.248;6.930;2023-03-23T01:37:15;13.20;95.40
13322;DHT22;6730;46.248;6.930;2023-03-23T01:39:42;13.20;95.50
13322;DHT22;6730;46.248;6.930;2023-03-23T01:42:11;13.30;95.70
13322;DHT22;6730;46.248;6.930;2023-03-23T01:47:02;13.20;95.70
13322;DHT22;6730;46.248;6.930;2023-03-23T01:49:31;13.30;95.80
13322;DHT22;6730;46.248;6.930;2023-03-23T01:52:02;13.50;95.50
13322;DHT22;6730;46.248;6.930;2023-03-23T01:54:29;13.40;95.40
13322;DHT22;6730;46.248;6.930;2023-03-23T01:57:05;13.20;95.60
13322;DHT22;6730;46.248;6.930;2023-03-23T01:59:33;13.20;95.40
13322;DHT22;6730;46.248;6.930;2023-03-23T02:02:00;13.30;95.40
13322;DHT22;6730;46.248;6.930;2023-03-23T02:04:28;13.30;95.50
13322;DHT22;6730;46.248;6.930;2023-03-23T02:06:55;12.90;95.80
13322;DHT22;6730;46.248;6.930;2023-03-23T02:09:25;12.60;95.60
13322;DHT22;6730;46.248;6.930;2023-03-23T02:11:52;12.60;95.80
13322;DHT22;6730;46.248;6.930;2023-03-23T02:14:19;12.60;95.70
13322;DHT22;6730;46.248;6.930;2023-03-23T02:28:12;13.40;95.40
13322;DHT22;6730;46.248;6.930;2023-03-23T02:33:28;13.80;94.50
13322;DHT22;6730;46.248;6.930;2023-03-23T02:39:12;13.80;95.10
13322;DHT22;6730;46.248;6.930;2023-03-23T02:41:43;13.60;95.50
13322;DHT22;6730;46.248;6.930;2023-03-23T02:44:11;13.50;95.90
13322;DHT22;6730;46.248;6.930;2023-03-23T02:46:39;13.50;95.70
13322;DHT22;6730;46.248;6.930;2023-03-23T02:49:07;13.50;95.90
13322;DHT22;6730;46.248;6.930;2023-03-23T02:51:34;13.50;95.90
13322;DHT22;6730;46.248;6.930;2023-03-23T02:54:01;13.60;95.60
13322;DHT22;6730;46.248;6.930;2023-03-23T02:56:29;13.50;95.40
13322;DHT22;6730;46.248;6.930;2023-03-23T02:58:55;13.50;95.40
13322;DHT22;6730;46.248;6.930;2023-03-23T03:04:04;13.50;95.50
13322;DHT22;6730;46.248;6.930;2023-03-23T03:11:50;13.50;96.40
13322;DHT22;6730;46.248;6.930;2023-03-23T03:14:29;13.40;96.30
13322;DHT22;6730;46.248;6.930;2023-03-23T03:17:07;13.40;96.00
13322;DHT22;6730;46.248;6.930;2023-03-23T03:19:38;13.30;96.20
13322;DHT22;6730;46.248;6.930;2023-03-23T03:22:06;13.40;96.00
13322;DHT22;6730;46.248;6.930;2023-03-23T03:24:33;13.50;95.50
13322;DHT22;6730;46.248;6.930;2023-03-23T03:27:04;13.50;95.70
13322;DHT22;6730;46.248;6.930;2023-03-23T03:29:37;13.30;96.20
13322;DHT22;6730;46.248;6.930;2023-03-23T03:32:10;13.30;96.10
13322;DHT22;6730;46.248;6.930;2023-03-23T03:34:37;13.30;96.20
13322;DHT22;6730;46.248;6.930;2023-03-23T03:37:04;13.10;96.80
13322;DHT22;6730;46.248;6.930;2023-03-23T03:39:31;13.10;97.00
13322;DHT22;6730;46.248;6.930;2023-03-23T03:41:59;13.00;97.20
13322;DHT22;6730;46.248;6.930;2023-03-23T03:44:25;13.40;96.60
13322;DHT22;6730;46.248;6.930;2023-03-23T03:46:51;13.70;96.30
13322;DHT22;6730;46.248;6.930;2023-03-23T03:49:17;13.90;95.90
13322;DHT22;6730;46.248;6.930;2023-03-23T03:51:43;14.00;95.60
13322;DHT22;6730;46.248;6.930;2023-03-23T03:54:08;14.20;95.50
13322;DHT22;6730;46.248;6.930;2023-03-23T03:56:34;14.10;95.60
13322;DHT22;6730;46.248;6.930;2023-03-23T03:59:06;14.00;95.40
13322;DHT22;6730;46.248;6.930;2023-03-23T04:01:33;14.00;95.40
13322;DHT22;6730;46.248;6.930;2023-03-23T04:03:59;14.00;95.40
13322;DHT22;6730;46.248;6.930;2023-03-23T04:06:25;14.00;95.50
13322;DHT22;6730;46.248;6.930;2023-03-23T04:08:57;13.90;95.60
13322;DHT22;6730;46.248;6.930;2023-03-23T04:11:25;13.90;95.20
13322;DHT22;6730;46.248;6.930;2023-03-23T04:13:50;13.90;95.00
13322;DHT22;6730;46.248;6.930;2023-03-23T04:16:16;13.60;95.50
13322;DHT22;6730;46.248;6.930;2023-03-23T04:18:42;13.40;95.60
13322;DHT22;6730;46.248;6.930;2023-03-23T04:21:10;13.40;95.50
13322;DHT22;6730;46.248;6.930;2023-03-23T04:23:36;13.60;95.50
13322;DHT22;6730;46.248;6.930;2023-03-23T04:26:04;13.60;95.50
13322;DHT22;6730;46.248;6.930;2023-03-23T04:28:30;13.60;95.40
13322;DHT22;6730;46.248;6.930;2023-03-23T04:30:59;13.60;95.40
13322;DHT22;6730;46.248;6.930;2023-03-23T04:33:27;13.50;95.50
13322;DHT22;6730;46.248;6.930;2023-03-23T04:35:55;13.50;95.60
13322;DHT22;6730;46.248;6.930;2023-03-23T04:38:23;13.50;95.50
13322;DHT22;6730;46.248;6.930;2023-03-23T04:40:51;13.50;95.30
13322;DHT22;6730;46.248;6.930;2023-03-23T04:43:18;13.50;95.40
13322;DHT22;6730;46.248;6.930;2023-03-23T04:45:57;13.60;95.20
13322;DHT22;6730;46.248;6.930;2023-03-23T04:48:27;13.50;95.20
13322;DHT22;6730;46.248;6.930;2023-03-23T04:50:54;13.50;95.10
13322;DHT22;6730;46.248;6.930;2023-03-23T04:53:20;13.50;95.00
13322;DHT22;6730;46.248;6.930;2023-03-23T04:55:47;13.50;95.00
13322;DHT22;6730;46.248;6.930;2023-03-23T04:58:15;13.40;95.00
13322;DHT22;6730;46.248;6.930;2023-03-23T05:00:41;13.40;95.00
13322;DHT22;6730;46.248;6.930;2023-03-23T05:03:11;13.40;95.00
13322;DHT22;6730;46.248;6.930;2023-03-23T05:05:42;13.20;95.20
13322;DHT22;6730;46.248;6.930;2023-03-23T05:08:08;13.20;95.20
13322;DHT22;6730;46.248;6.930;2023-03-23T05:10:34;13.20;95.00
13322;DHT22;6730;46.248;6.930;2023-03-23T05:12:59;13.10;95.00
13322;DHT22;6730;46.248;6.930;2023-03-23T05:15:25;13.10;94.90
13322;DHT22;6730;46.248;6.930;2023-03-23T05:17:52;13.10;94.90
13322;DHT22;6730;46.248;6.930;2023-03-23T05:20:18;13.00;94.60
13322;DHT22;6730;46.248;6.930;2023-03-23T05:22:45;13.10;94.90
13322;DHT22;6730;46.248;6.930;2023-03-23T05:25:13;13.10;95.20
13322;DHT22;6730;46.248;6.930;2023-03-23T05:27:39;12.90;95.50
13322;DHT22;6730;46.248;6.930;2023-03-23T05:30:09;13.00;95.50
13322;DHT22;6730;46.248;6.930;2023-03-23T05:32:35;13.10;95.20
13322;DHT22;6730;46.248;6.930;2023-03-23T05:35:03;13.20;95.20
13322;DHT22;6730;46.248;6.930;2023-03-23T05:37:29;13.20;95.10
13322;DHT22;6730;46.248;6.930;2023-03-23T05:39:58;13.30;94.90
13322;DHT22;6730;46.248;6.930;2023-03-23T05:42:31;13.30;94.80
13322;DHT22;6730;46.248;6.930;2023-03-23T05:44:58;13.20;94.90
13322;DHT22;6730;46.248;6.930;2023-03-23T05:47:24;13.00;95.70
13322;DHT22;6730;46.248;6.930;2023-03-23T05:49:50;12.50;96.10
13322;DHT22;6730;46.248;6.930;2023-03-23T05:52:17;12.70;96.00
13322;DHT22;6730;46.248;6.930;2023-03-23T05:54:43;12.70;95.90
13322;DHT22;6730;46.248;6.930;2023-03-23T05:57:10;12.90;95.80
13322;DHT22;6730;46.248;6.930;2023-03-23T05:59:36;13.10;95.70
13322;DHT22;6730;46.248;6.930;2023-03-23T06:02:01;13.20;95.60
13322;DHT22;6730;46.248;6.930;2023-03-23T06:04:27;13.20;95.40
13322;DHT22;6730;46.248;6.930;2023-03-23T06:06:53;13.10;95.50
13322;DHT22;6730;46.248;6.930;2023-03-23T06:09:19;13.00;95.40
13322;DHT22;6730;46.248;6.930;2023-03-23T06:11:45;12.90;95.50
13322;DHT22;6730;46.248;6.930;2023-03-23T06:14:10;12.90;95.90
13322;DHT22;6730;46.248;6.930;2023-03-23T06:16:37;13.00;96.30
13322;DHT22;6730;46.248;6.930;2023-03-23T06:19:03;13.20;96.10
13322;DHT22;6730;46.248;6.930;2023-03-23T06:21:30;13.30;95.70
13322;DHT22;6730;46.248;6.930;2023-03-23T06:23:57;13.50;95.70
13322;DHT22;6730;46.248;6.930;2023-03-23T06:26:37;13.50;95.80
13322;DHT22;6730;46.248;6.930;2023-03-23T06:29:05;13.60;95.70
13322;DHT22;6730;46.248;6.930;2023-03-23T06:31:42;13.60;95.40
13322;DHT22;6730;46.248;6.930;2023-03-23T06:34:10;13.60;95.70
13322;DHT22;6730;46.248;6.930;2023-03-23T06:36:36;13.70;95.90
13322;DHT22;6730;46.248;6.930;2023-03-23T06:39:04;14.10;95.30
13322;DHT22;6730;46.248;6.930;2023-03-23T06:41:33;14.30;94.80
13322;DHT22;6730;46.248;6.930;2023-03-23T06:43:59;13.90;95.10
13322;DHT22;6730;46.248;6.930;2023-03-23T06:46:26;13.70;95.40
13322;DHT22;6730;46.248;6.930;2023-03-23T06:48:52;13.70;95.50
13322;DHT22;6730;46.248;6.930;2023-03-23T06:51:18;13.50;95.30
13322;DHT22;6730;46.248;6.930;2023-03-23T06:53:44;13.50;96.00
13322;DHT22;6730;46.248;6.930;2023-03-23T06:56:10;13.50;96.20
13322;DHT22;6730;46.248;6.930;2023-03-23T06:58:37;13.50;96.40
13322;DHT22;6730;46.248;6.930;2023-03-23T07:01:03;13.40;96.30
13322;DHT22;6730;46.248;6.930;2023-03-23T07:03:29;13.10;97.60
13322;DHT22;6730;46.248;6.930;2023-03-23T07:05:56;13.00;98.10
13322;DHT22;6730;46.248;6.930;2023-03-23T07:08:22;12.80;97.70
13322;DHT22;6730;46.248;6.930;2023-03-23T07:10:51;12.80;97.70
13322;DHT22;6730;46.248;6.930;2023-03-23T07:13:18;12.80;97.70
13322;DHT22;6730;46.248;6.930;2023-03-23T07:15:44;13.00;97.60
13322;DHT22;6730;46.248;6.930;2023-03-23T07:18:10;13.40;97.90
13322;DHT22;6730;46.248;6.930;2023-03-23T07:20:36;13.80;96.80
13322;DHT22;6730;46.248;6.930;2023-03-23T07:23:02;14.00;96.70
13322;DHT22;6730;46.248;6.930;2023-03-23T07:25:31;14.30;96.20
13322;DHT22;6730;46.248;6.930;2023-03-23T07:28:01;14.30;96.20
13322;DHT22;6730;46.248;6.930;2023-03-23T07:30:27;14.30;96.90
13322;DHT22;6730;46.248;6.930;2023-03-23T07:32:55;14.10;98.10
13322;DHT22;6730;46.248;6.930;2023-03-23T07:35:22;13.60;98.30
13322;DHT22;6730;46.248;6.930;2023-03-23T07:37:48;13.30;98.30
13322;DHT22;6730;46.248;6.930;2023-03-23T07:40:15;13.30;98.00
13322;DHT22;6730;46.248;6.930;2023-03-23T07:42:45;13.60;97.50
13322;DHT22;6730;46.248;6.930;2023-03-23T07:45:12;14.00;97.20
13322;DHT22;6730;46.248;6.930;2023-03-23T07:47:39;14.30;96.90
13322;DHT22;6730;46.248;6.930;2023-03-23T07:50:05;14.30;97.90
13322;DHT22;6730;46.248;6.930;2023-03-23T07:52:32;14.00;96.90
13322;DHT22;6730;46.248;6.930;2023-03-23T07:54:58;14.10;97.60
13322;DHT22;6730;46.248;6.930;2023-03-23T07:57:24;14.50;95.90
13322;DHT22;6730;46.248;6.930;2023-03-23T07:59:50;14.80;95.80
13322;DHT22;6730;46.248;6.930;2023-03-23T08:02:16;14.60;97.90
13322;DHT22;6730;46.248;6.930;2023-03-23T08:04:41;14.50;98.50
13322;DHT22;6730;46.248;6.930;2023-03-23T08:07:07;14.30;98.30
13322;DHT22;6730;46.248;6.930;2023-03-23T08:09:33;14.40;98.60
13322;DHT22;6730;46.248;6.930;2023-03-23T08:11:59;14.20;98.00
13322;DHT22;6730;46.248;6.930;2023-03-23T08:14:24;14.10;98.50
13322;DHT22;6730;46.248;6.930;2023-03-23T08:16:53;13.90;97.40
13322;DHT22;6730;46.248;6.930;2023-03-23T08:19:21;14.00;99.00
13322;DHT22;6730;46.248;6.930;2023-03-23T08:21:47;14.00;97.90
13322;DHT22;6730;46.248;6.930;2023-03-23T08:24:13;14.20;97.20
13322;DHT22;6730;46.248;6.930;2023-03-23T08:26:39;14.50;97.40
13322;DHT22;6730;46.248;6.930;2023-03-23T08:29:06;14.60;97.90
13322;DHT22;6730;46.248;6.930;2023-03-23T08:31:31;14.60;98.80
13322;DHT22;6730;46.248;6.930;2023-03-23T08:34:00;14.60;99.50
13322;DHT22;6730;46.248;6.930;2023-03-23T08:36:27;14.50;99.00
13322;DHT22;6730;46.248;6.930;2023-03-23T08:38:53;14.60;98.80
13322;DHT22;6730;46.248;6.930;2023-03-23T08:41:19;14.60;97.30
13322;DHT22;6730;46.248;6.930;2023-03-23T08:43:45;14.40;98.00
13322;DHT22;6730;46.248;6.930;2023-03-23T08:46:12;14.70;97.30
13322;DHT22;6730;46.248;6.930;2023-03-23T08:48:38;15.10;96.70
13322;DHT22;6730;46.248;6.930;2023-03-23T08:51:05;15.40;96.50
13322;DHT22;6730;46.248;6.930;2023-03-23T08:53:31;15.70;97.30
13322;DHT22;6730;46.248;6.930;2023-03-23T08:56:08;15.90;97.90
13322;DHT22;6730;46.248;6.930;2023-03-23T08:58:36;15.70;97.00
13322;DHT22;6730;46.248;6.930;2023-03-23T09:01:02;15.10;99.00
13322;DHT22;6730;46.248;6.930;2023-03-23T09:03:29;14.60;99.00
13322;DHT22;6730;46.248;6.930;2023-03-23T09:06:02;14.40;99.90
13322;DHT22;6730;46.248;6.930;2023-03-23T09:08:29;14.40;99.30
13322;DHT22;6730;46.248;6.930;2023-03-23T09:10:59;14.70;99.80
13322;DHT22;6730;46.248;6.930;2023-03-23T09:13:24;15.30;99.80
13322;DHT22;6730;46.248;6.930;2023-03-23T09:15:50;15.80;99.30
13322;DHT22;6730;46.248;6.930;2023-03-23T09:18:18;16.20;98.60
13322;DHT22;6730;46.248;6.930;2023-03-23T09:20:43;16.30;96.70
13322;DHT22;6730;46.248;6.930;2023-03-23T09:23:09;16.70;97.40
13322;DHT22;6730;46.248;6.930;2023-03-23T09:25:35;16.70;94.50
13322;DHT22;6730;46.248;6.930;2023-03-23T09:28:01;16.20;95.20
13322;DHT22;6730;46.248;6.930;2023-03-23T09:30:30;15.80;96.90
13322;DHT22;6730;46.248;6.930;2023-03-23T09:32:56;16.30;98.00
13322;DHT22;6730;46.248;6.930;2023-03-23T09:35:23;16.40;95.20
13322;DHT22;6730;46.248;6.930;2023-03-23T09:37:51;16.30;96.70
13322;DHT22;6730;46.248;6.930;2023-03-23T09:40:22;16.70;96.60
13322;DHT22;6730;46.248;6.930;2023-03-23T09:43:11;17.10;96.30
13322;DHT22;6730;46.248;6.930;2023-03-23T09:54:19;17.90;94.50
13322;DHT22;6730;46.248;6.930;2023-03-23T09:56:46;17.70;94.10
13322;DHT22;6730;46.248;6.930;2023-03-23T10:02:18;17.10;94.90
13322;DHT22;6730;46.248;6.930;2023-03-23T10:04:54;16.50;96.00
13322;DHT22;6730;46.248;6.930;2023-03-23T10:07:23;16.70;95.20
13322;DHT22;6730;46.248;6.930;2023-03-23T10:09:52;16.70;95.50
13322;DHT22;6730;46.248;6.930;2023-03-23T10:12:35;16.50;95.40
13322;DHT22;6730;46.248;6.930;2023-03-23T10:15:29;16.10;95.20
13322;DHT22;6730;46.248;6.930;2023-03-23T10:18:10;16.10;95.30
13322;DHT22;6730;46.248;6.930;2023-03-23T10:21:16;16.10;95.20
13322;DHT22;6730;46.248;6.930;2023-03-23T10:23:59;16.30;95.50
13322;DHT22;6730;46.248;6.930;2023-03-23T10:29:15;16.30;94.80
13322;DHT22;6730;46.248;6.930;2023-03-23T10:32:12;16.00;95.10
13322;DHT22;6730;46.248;6.930;2023-03-23T10:34:52;16.00;95.40
13322;DHT22;6730;46.248;6.930;2023-03-23T10:39:53;15.40;95.70
13322;DHT22;6730;46.248;6.930;2023-03-23T10:42:34;15.90;95.60
13322;DHT22;6730;46.248;6.930;2023-03-23T10:45:13;16.00;95.30
13322;DHT22;6730;46.248;6.930;2023-03-23T10:47:44;16.60;96.30
13322;DHT22;6730;46.248;6.930;2023-03-23T10:50:14;17.20;95.00
13322;DHT22;6730;46.248;6.930;2023-03-23T10:52:42;17.20;95.30
13322;DHT22;6730;46.248;6.930;2023-03-23T10:55:18;17.30;94.60
13322;DHT22;6730;46.248;6.930;2023-03-23T10:57:47;17.00;93.40
13322;DHT22;6730;46.248;6.930;2023-03-23T11:00:25;17.00;94.50
13322;DHT22;6730;46.248;6.930;2023-03-23T11:03:04;17.30;95.10
13322;DHT22;6730;46.248;6.930;2023-03-23T11:05:48;17.60;95.60
13322;DHT22;6730;46.248;6.930;2023-03-23T11:08:29;17.60;95.60
13322;DHT22;6730;46.248;6.930;2023-03-23T11:11:17;17.70;95.90
13322;DHT22;6730;46.248;6.930;2023-03-23T11:13:46;18.00;94.10
13322;DHT22;6730;46.248;6.930;2023-03-23T11:16:42;18.20;95.50
13322;DHT22;6730;46.248;6.930;2023-03-23T11:19:16;18.30;94.00
13322;DHT22;6730;46.248;6.930;2023-03-23T11:21:49;18.70;94.70
13322;DHT22;6730;46.248;6.930;2023-03-23T11:24:15;18.90;94.70
13322;DHT22;6730;46.248;6.930;2023-03-23T11:26:43;19.50;94.50
13322;DHT22;6730;46.248;6.930;2023-03-23T11:32:04;19.80;93.90
13322;DHT22;6730;46.248;6.930;2023-03-23T11:34:40;20.00;93.20
13322;DHT22;6730;46.248;6.930;2023-03-23T11:37:18;19.70;92.70
13322;DHT22;6730;46.248;6.930;2023-03-23T11:39:58;19.30;91.80
13322;DHT22;6730;46.248;6.930;2023-03-23T11:42:45;18.90;91.80
13322;DHT22;6730;46.248;6.930;2023-03-23T11:48:09;18.70;93.80
13322;DHT22;6730;46.248;6.930;2023-03-23T11:50:51;18.70;95.10
13322;DHT22;6730;46.248;6.930;2023-03-23T11:53:58;19.00;94.40
13322;DHT22;6730;46.248;6.930;2023-03-23T11:56:41;18.90;95.40
13322;DHT22;6730;46.248;6.930;2023-03-23T11:59:13;18.30;94.80
13322;DHT22;6730;46.248;6.930;2023-03-23T12:10:19;17.90;94.60
13322;DHT22;6730;46.248;6.930;2023-03-23T12:20:56;16.90;96.30
13322;DHT22;6730;46.248;6.930;2023-03-23T12:29:23;17.00;95.20
13322;DHT22;6730;46.248;6.930;2023-03-23T12:32:13;16.80;94.80
13322;DHT22;6730;46.248;6.930;2023-03-23T12:40:08;16.90;94.90
13322;DHT22;6730;46.248;6.930;2023-03-23T12:48:11;16.70;94.40
13322;DHT22;6730;46.248;6.930;2023-03-23T12:50:45;16.90;95.00
13322;DHT22;6730;46.248;6.930;2023-03-23T12:53:38;16.70;94.30
13322;DHT22;6730;46.248;6.930;2023-03-23T12:58:51;17.00;95.90
13322;DHT22;6730;46.248;6.930;2023-03-23T13:01:24;17.00;94.90
13322;DHT22;6730;46.248;6.930;2023-03-23T13:11:39;16.20;93.70
13322;DHT22;6730;46.248;6.930;2023-03-23T13:20:13;16.40;94.90
13322;DHT22;6730;46.248;6.930;2023-03-23T13:28:18;16.20;95.40
13322;DHT22;6730;46.248;6.930;2023-03-23T13:34:03;16.20;94.70
13322;DHT22;6730;46.248;6.930;2023-03-23T13:39:06;16.50;94.80
13322;DHT22;6730;46.248;6.930;2023-03-23T13:41:46;16.70;95.10
13322;DHT22;6730;46.248;6.930;2023-03-23T13:44:24;16.80;94.70
13322;DHT22;6730;46.248;6.930;2023-03-23T13:47:06;16.60;95.10
13322;DHT22;6730;46.248;6.930;2023-03-23T13:49:32;16.10;94.90
13322;DHT22;6730;46.248;6.930;2023-03-23T13:52:14;15.60;95.50
13322;DHT22;6730;46.248;6.930;2023-03-23T13:54:43;15.60;96.00
13322;DHT22;6730;46.248;6.930;2023-03-23T14:00:22;16.20;95.00
13322;DHT22;6730;46.248;6.930;2023-03-23T14:02:50;16.00;95.70
13322;DHT22;6730;46.248;6.930;2023-03-23T14:10:38;15.80;96.20
13322;DHT22;6730;46.248;6.930;2023-03-23T14:13:06;15.80;96.60
13322;DHT22;6730;46.248;6.930;2023-03-23T14:15:45;15.60;96.00
13322;DHT22;6730;46.248;6.930;2023-03-23T14:18:19;15.60;97.00
13322;DHT22;6730;46.248;6.930;2023-03-23T14:20:47;15.40;96.70
13322;DHT22;6730;46.248;6.930;2023-03-23T14:23:18;15.30;96.70
13322;DHT22;6730;46.248;6.930;2023-03-23T14:25:54;15.10;97.80
13322;DHT22;6730;46.248;6.930;2023-03-23T14:28:21;15.20;97.90
13322;DHT22;6730;46.248;6.930;2023-03-23T14:30:52;15.40;98.50
13322;DHT22;6730;46.248;6.930;2023-03-23T14:33:19;15.40;99.00
13322;DHT22;6730;46.248;6.930;2023-03-23T14:35:46;15.50;98.50
13322;DHT22;6730;46.248;6.930;2023-03-23T14:38:22;15.40;97.70
13322;DHT22;6730;46.248;6.930;2023-03-23T14:40:50;15.10;98.90
13322;DHT22;6730;46.248;6.930;2023-03-23T14:43:20;15.00;98.50
13322;DHT22;6730;46.248;6.930;2023-03-23T14:45:52;15.00;98.60
13322;DHT22;6730;46.248;6.930;2023-03-23T14:48:20;15.00;98.50
13322;DHT22;6730;46.248;6.930;2023-03-23T14:50:57;15.10;98.90
13322;DHT22;6730;46.248;6.930;2023-03-23T14:53:41;15.40;99.10
13322;DHT22;6730;46.248;6.930;2023-03-23T14:56:13;15.70;98.80
13322;DHT22;6730;46.248;6.930;2023-03-23T14:58:46;16.00;98.90
13322;DHT22;6730;46.248;6.930;2023-03-23T15:01:26;16.10;98.80
13322;DHT22;6730;46.248;6.930;2023-03-23T15:04:04;15.90;98.20
13322;DHT22;6730;46.248;6.930;2023-03-23T15:06:33;15.40;98.50
13322;DHT22;6730;46.248;6.930;2023-03-23T15:09:02;15.30;99.10
13322;DHT22;6730;46.248;6.930;2023-03-23T15:11:32;15.00;98.60
13322;DHT22;6730;46.248;6.930;2023-03-23T15:14:09;14.80;99.00
13322;DHT22;6730;46.248;6.930;2023-03-23T15:16:36;14.50;99.40
13322;DHT22;6730;46.248;6.930;2023-03-23T15:19:15;14.40;99.70
13322;DHT22;6730;46.248;6.930;2023-03-23T15:21:56;14.50;99.60
13322;DHT22;6730;46.248;6.930;2023-03-23T15:24:34;14.40;99.70
13322;DHT22;6730;46.248;6.930;2023-03-23T15:29:50;14.10;99.90
13322;DHT22;6730;46.248;6.930;2023-03-23T15:32:30;14.00;99.90
13322;DHT22;6730;46.248;6.930;2023-03-23T15:34:57;14.00;99.90
13322;DHT22;6730;46.248;6.930;2023-03-23T15:37:27;13.90;99.90
13322;DHT22;6730;46.248;6.930;2023-03-23T15:39:54;13.90;99.90
13322;DHT22;6730;46.248;6.930;2023-03-23T15:42:32;13.80;99.90
13322;DHT22;6730;46.248;6.930;2023-03-23T15:45:03;13.70;99.90
13322;DHT22;6730;46.248;6.930;2023-03-23T15:47:36;13.70;99.90
13322;DHT22;6730;46.248;6.930;2023-03-23T15:52:35;14.10;99.90
13322;DHT22;6730;46.248;6.930;2023-03-23T15:55:01;14.60;99.90
13322;DHT22;6730;46.248;6.930;2023-03-23T15:57:27;14.80;99.90
13322;DHT22;6730;46.248;6.930;2023-03-23T15:59:53;14.60;99.90
13322;DHT22;6730;46.248;6.930;2023-03-23T16:02:21;14.70;99.90
13322;DHT22;6730;46.248;6.930;2023-03-23T16:04:49;14.60;99.90
13322;DHT22;6730;46.248;6.930;2023-03-23T16:07:15;14.90;99.90
13322;DHT22;6730;46.248;6.930;2023-03-23T16:09:41;15.20;99.90
13322;DHT22;6730;46.248;6.930;2023-03-23T16:12:10;15.20;99.90
13322;DHT22;6730;46.248;6.930;2023-03-23T16:14:38;14.80;99.90
13322;DHT22;6730;46.248;6.930;2023-03-23T16:17:04;14.90;99.90
13322;DHT22;6730;46.248;6.930;2023-03-23T16:19:30;14.50;99.90
13322;DHT22;6730;46.248;6.930;2023-03-23T16:21:56;14.10;99.90
13322;DHT22;6730;46.248;6.930;2023-03-23T16:24:22;14.00;99.90
13322;DHT22;6730;46.248;6.930;2023-03-23T16:26:47;14.00;99.90
13322;DHT22;6730;46.248;6.930;2023-03-23T16:29:16;14.20;99.90
13322;DHT22;6730;46.248;6.930;2023-03-23T16:31:42;14.50;99.90
13322;DHT22;6730;46.248;6.930;2023-03-23T16:34:08;14.90;99.90
13322;DHT22;6730;46.248;6.930;2023-03-23T16:36:34;15.20;99.90
13322;DHT22;6730;46.248;6.930;2023-03-23T16:39:00;15.30;99.90
13322;DHT22;6730;46.248;6.930;2023-03-23T16:41:26;15.40;99.90
13322;DHT22;6730;46.248;6.930;2023-03-23T16:43:51;15.40;99.90
13322;DHT22;6730;46.248;6.930;2023-03-23T16:46:17;15.30;99.90
13322;DHT22;6730;46.248;6.930;2023-03-23T16:48:42;15.30;99.90
13322;DHT22;6730;46.248;6.930;2023-03-23T16:51:08;15.40;99.90
13322;DHT22;6730;46.248;6.930;2023-03-23T16:53:34;15.90;99.90
13322;DHT22;6730;46.248;6.930;2023-03-23T16:56:01;15.80;99.60
13322;DHT22;6730;46.248;6.930;2023-03-23T16:58:27;15.10;99.90
13322;DHT22;6730;46.248;6.930;2023-03-23T17:00:52;15.00;99.90
13322;DHT22;6730;46.248;6.930;2023-03-23T17:03:20;15.30;99.90
13322;DHT22;6730;46.248;6.930;2023-03-23T17:05:50;15.80;99.90
13322;DHT22;6730;46.248;6.930;2023-03-23T17:08:17;16.20;99.40
13322;DHT22;6730;46.248;6.930;2023-03-23T17:10:43;16.30;99.20
13322;DHT22;6730;46.248;6.930;2023-03-23T17:13:09;16.10;99.50
13322;DHT22;6730;46.248;6.930;2023-03-23T17:15:40;15.70;99.80
13322;DHT22;6730;46.248;6.930;2023-03-23T17:18:06;15.50;99.90
13322;DHT22;6730;46.248;6.930;2023-03-23T17:20:33;15.50;99.90
13322;DHT22;6730;46.248;6.930;2023-03-23T17:22:59;15.50;99.90
13322;DHT22;6730;46.248;6.930;2023-03-23T17:25:26;15.50;99.90
13322;DHT22;6730;46.248;6.930;2023-03-23T17:27:52;15.40;99.90
13322;DHT22;6730;46.248;6.930;2023-03-23T17:30:18;15.60;99.90
13322;DHT22;6730;46.248;6.930;2023-03-23T17:32:44;15.60;99.90
13322;DHT22;6730;46.248;6.930;2023-03-23T17:35:12;15.60;99.80
13322;DHT22;6730;46.248;6.930;2023-03-23T17:37:37;15.90;99.40
13322;DHT22;6730;46.248;6.930;2023-03-23T17:40:08;16.00;99.10
13322;DHT22;6730;46.248;6.930;2023-03-23T17:42:36;15.80;99.30
13322;DHT22;6730;46.248;6.930;2023-03-23T17:45:03;15.60;99.40
13322;DHT22;6730;46.248;6.930;2023-03-23T17:47:29;15.50;99.60
13322;DHT22;6730;46.248;6.930;2023-03-23T17:49:55;15.40;99.50
13322;DHT22;6730;46.248;6.930;2023-03-23T17:52:21;15.20;99.40
13322;DHT22;6730;46.248;6.930;2023-03-23T17:54:47;15.10;99.40
13322;DHT22;6730;46.248;6.930;2023-03-23T17:57:13;15.10;99.40
13322;DHT22;6730;46.248;6.930;2023-03-23T17:59:39;14.70;99.90
13322;DHT22;6730;46.248;6.930;2023-03-23T18:02:05;14.20;99.90
13322;DHT22;6730;46.248;6.930;2023-03-23T18:04:31;14.20;99.90